Time;durP1;ratioP1;P1;durP2;ratioP2;P2;SDS_P1;SDS_P2;PMS_P1;PMS_P2;Temp;Humidity;BMP_temperature;BMP_pressure;BME280_temperature;BME280_humidity;BME280_pressure;Samples;Min_cycle;Max_cycle;Signal;HPM_P1;HPM_P2
2022/05/26 00:00:13;;;;;;;1.60;1.05;;;11.00;99.90;;;;;;5104554;28;20043;-64
2022/05/26 00:02:40;;;;;;;1.77;0.70;;;11.00;99.90;;;;;;5111939;28;20407;-64
2022/05/26 00:05:07;;;;;;;5.47;1.52;;;11.00;99.90;;;;;;5107574;28;20043;-64
2022/05/26 00:07:34;;;;;;;;;;;10.90;99.90;;;;;;5103690;28;20039;-63
2022/05/26 00:10:01;;;;;;;2.30;1.00;;;11.00;99.90;;;;;;5111601;28;19919;-64
2022/05/26 00:12:27;;;;;;;3.25;1.02;;;11.00;99.90;;;;;;5111579;28;20471;-63
2022/05/26 00:14:54;;;;;;;1.52;0.80;;;11.00;99.90;;;;;;5102817;28;20049;-63
2022/05/26 00:17:21;;;;;;;1.15;0.88;;;11.00;99.90;;;;;;5106249;28;20515;-64
2022/05/26 00:19:48;;;;;;;;;;;11.00;99.90;;;;;;5112137;28;20114;-64
2022/05/26 00:22:16;;;;;;;0.80;0.80;;;10.90;99.90;;;;;;5105410;28;19927;-64
2022/05/26 00:24:43;;;;;;;1.42;1.10;;;10.90;99.90;;;;;;5103181;28;20044;-64
2022/05/26 00:27:10;;;;;;;4.05;1.40;;;10.90;99.90;;;;;;5111364;28;20043;-64
2022/05/26 00:29:38;;;;;;;1.80;1.13;;;10.90;99.90;;;;;;5106552;28;20040;-63
2022/05/26 00:32:05;;;;;;;;;;;10.90;99.90;;;;;;5103071;28;20055;-64
2022/05/26 00:34:32;;;;;;;2.95;1.30;;;10.90;99.90;;;;;;5111546;28;19920;-63
2022/05/26 00:36:59;;;;;;;3.92;1.00;;;10.90;99.90;;;;;;5111464;28;20479;-64
2022/05/26 00:39:26;;;;;;;1.50;1.10;;;10.70;99.90;;;;;;5102729;28;20043;-64
2022/05/26 00:41:57;;;;;;;1.88;1.23;;;10.60;99.90;;;;;;5102639;28;20438;-63
2022/05/26 00:44:24;;;;;;;3.22;1.33;;;10.40;99.90;;;;;;5113376;28;20096;-64
2022/05/26 00:47:13;;;;;;;2.83;1.17;;;10.40;99.90;;;;;;5111890;28;20052;-64
2022/05/26 00:49:48;;;;;;;3.65;1.52;;;10.30;99.90;;;;;;5107068;28;20046;-64
2022/05/26 00:52:20;;;;;;;2.22;1.50;;;10.20;99.90;;;;;;5115497;28;20418;-64
2022/05/26 00:54:50;;;;;;;2.35;1.77;;;10.20;99.90;;;;;;5111039;28;20408;-64
2022/05/26 00:57:34;;;;;;;2.90;1.80;;;10.20;99.90;;;;;;5106585;28;20039;-64
2022/05/26 01:00:11;;;;;;;3.85;1.90;;;10.10;99.90;;;;;;5115159;28;20036;-64
2022/05/26 01:02:45;;;;;;;4.72;1.40;;;10.10;99.90;;;;;;5115472;28;20035;-64
2022/05/26 01:05:23;;;;;;;1.92;1.27;;;10.00;99.90;;;;;;5107661;28;20607;-63
2022/05/26 01:07:51;;;;;;;5.07;1.67;;;10.00;99.90;;;;;;5106691;28;20047;-64
2022/05/26 01:10:17;;;;;;;1.55;1.10;;;10.00;99.90;;;;;;5115107;28;20036;-64
2022/05/26 01:12:44;;;;;;;4.47;1.20;;;10.00;99.90;;;;;;5115470;28;20491;-63
2022/05/26 01:15:15;;;;;;;1.85;0.93;;;10.00;99.90;;;;;;5105787;28;20039;-64
2022/05/26 01:17:51;;;;;;;3.60;1.00;;;10.10;99.90;;;;;;5112761;28;20052;-63
2022/05/26 01:20:36;;;;;;;1.73;1.05;;;10.10;99.90;;;;;;5114969;28;20377;-64
2022/05/26 01:23:27;;;;;;;2.70;1.20;;;10.10;99.90;;;;;;5111402;28;20042;-64
2022/05/26 01:26:31;;;;;;;6.50;1.10;;;10.10;99.90;;;;;;5106632;28;20430;-64
2022/05/26 01:29:16;;;;;;;6.93;1.30;;;10.10;99.90;;;;;;5115160;28;20055;-64
2022/05/26 01:31:55;;;;;;;5.68;1.38;;;10.10;99.90;;;;;;5110400;28;20039;-64
2022/05/26 01:34:28;;;;;;;3.38;1.17;;;10.10;99.90;;;;;;5109870;28;20501;-64
2022/05/26 01:37:06;;;;;;;4.53;1.38;;;10.00;99.90;;;;;;5114839;28;20117;-64
2022/05/26 01:39:52;;;;;;;4.32;1.50;;;10.00;99.90;;;;;;5115013;28;20039;-64
2022/05/26 01:43:05;;;;;;;7.60;1.70;;;10.00;99.90;;;;;;5103094;28;20072;-64
2022/05/26 01:45:43;;;;;;;4.28;1.90;;;10.10;99.90;;;;;;4992593;28;20057;-64
2022/05/26 01:48:29;;;;;;;4.35;1.60;;;10.10;99.90;;;;;;4994185;28;20490;-64
2022/05/26 01:51:14;;;;;;;6.15;1.90;;;10.00;99.90;;;;;;5082085;28;20060;-64
2022/05/26 01:54:08;;;;;;;5.65;2.22;;;9.90;99.90;;;;;;5094383;28;20044;-64
2022/05/26 01:56:52;;;;;;;2.35;1.77;;;10.00;99.90;;;;;;5093994;28;20408;-64
2022/05/26 01:59:27;;;;;;;6.65;1.65;;;9.90;99.90;;;;;;5101341;28;20038;-63
2022/05/26 02:02:02;;;;;;;2.00;1.70;;;9.90;99.90;;;;;;5113716;28;20053;-64
2022/05/26 02:04:40;;;;;;;4.70;1.75;;;9.90;99.90;;;;;;5114492;28;20074;-64
2022/05/26 02:07:18;;;;;;;3.38;1.10;;;9.90;99.90;;;;;;5104620;28;20047;-64
2022/05/26 02:09:45;;;;;;;1.55;1.08;;;9.90;99.90;;;;;;5112435;28;20039;-63
2022/05/26 02:12:16;;;;;;;2.28;1.17;;;9.90;99.90;;;;;;5113969;28;20048;-64
2022/05/26 02:14:50;;;;;;;2.55;1.00;;;9.90;99.90;;;;;;5109069;28;20043;-64
2022/05/26 02:17:27;;;;;;;2.17;1.10;;;9.90;99.90;;;;;;5108353;28;20046;-64
2022/05/26 02:20:15;;;;;;;2.50;2.30;;;9.90;99.90;;;;;;5113837;28;20043;-63
2022/05/26 02:22:58;;;;;;;2.35;1.25;;;9.90;99.90;;;;;;5107115;28;20058;-64
2022/05/26 02:25:28;;;;;;;2.20;1.20;;;9.80;99.90;;;;;;5105486;28;20051;-64
2022/05/26 02:27:56;;;;;;;3.17;1.00;;;9.70;99.90;;;;;;5113909;28;20062;-64
2022/05/26 02:30:30;;;;;;;1.10;0.85;;;9.50;99.90;;;;;;5113633;28;20052;-64
2022/05/26 02:32:59;;;;;;;0.93;0.82;;;9.50;99.90;;;;;;5104602;28;20052;-64
2022/05/26 02:35:36;;;;;;;4.60;1.20;;;9.50;99.90;;;;;;5109329;28;20059;-64
2022/05/26 02:38:16;;;;;;;2.05;1.25;;;9.50;99.90;;;;;;5113816;28;20051;-64
2022/05/26 02:40:43;;;;;;;2.53;0.98;;;9.60;99.90;;;;;;5108325;28;20055;-64
2022/05/26 02:43:18;;;;;;;;;;;9.60;99.90;;;;;;5105457;28;20032;-64
2022/05/26 02:46:23;;;;;;;2.05;1.00;;;9.60;99.90;;;;;;5113664;28;19920;-64
2022/05/26 02:49:09;;;;;;;2.22;1.15;;;9.70;99.90;;;;;;5107672;28;20044;-64
2022/05/26 02:51:46;;;;;;;3.47;1.20;;;9.70;99.90;;;;;;5098470;28;20044;-63
2022/05/26 02:54:13;;;;;;;8.00;1.52;;;9.70;99.90;;;;;;5113487;28;20043;-63
2022/05/26 02:57:13;;;;;;;2.73;1.30;;;9.60;99.90;;;;;;5113516;28;20048;-63
2022/05/26 03:00:06;;;;;;;5.55;1.40;;;9.50;99.90;;;;;;5109151;28;20289;-64
2022/05/26 03:02:33;;;;;;;5.00;1.25;;;9.50;99.90;;;;;;5109899;28;20385;-64
2022/05/26 03:05:08;;;;;;;2.00;1.13;;;9.40;99.90;;;;;;5113296;28;20047;-64
2022/05/26 03:07:41;;;;;;;3.08;1.50;;;9.40;99.90;;;;;;5112396;28;20414;-64
2022/05/26 03:10:08;;;;;;;7.93;1.55;;;9.40;99.90;;;;;;5102534;28;20051;-63
2022/05/26 03:12:36;;;;;;;1.50;1.30;;;9.30;99.90;;;;;;5109945;28;20488;-64
2022/05/26 03:15:06;;;;;;;3.42;0.95;;;9.30;99.90;;;;;;5113032;28;20047;-63
2022/05/26 03:17:33;;;;;;;1.65;1.17;;;9.40;99.90;;;;;;5109214;28;20419;-64
2022/05/26 03:20:00;;;;;;;1.38;1.00;;;9.40;99.90;;;;;;5104072;28;20038;-64
2022/05/26 03:22:27;;;;;;;3.15;1.42;;;9.40;99.90;;;;;;5112970;28;20043;-64
2022/05/26 03:24:54;;;;;;;3.08;1.17;;;9.40;99.90;;;;;;5111620;28;20047;-63
2022/05/26 03:27:20;;;;;;;2.00;1.20;;;9.50;99.90;;;;;;5100527;28;20044;-64
2022/05/26 03:29:47;;;;;;;5.63;1.17;;;9.50;99.90;;;;;;5111259;28;20050;-63
2022/05/26 03:32:15;;;;;;;2.63;1.23;;;9.60;99.90;;;;;;5112459;28;20036;-64
2022/05/26 03:43:00;;;;;;;2.05;1.00;;;9.70;99.90;;;;;;5100240;28;20036;-63
2022/05/26 03:45:28;;;;;;;1.48;1.20;;;9.70;99.90;;;;;;5108192;28;20096;-64
2022/05/26 03:47:55;;;;;;;2.55;1.10;;;9.70;99.90;;;;;;5112228;28;20121;-63
2022/05/26 03:50:21;;;;;;;9.30;1.70;;;9.70;99.90;;;;;;5102181;28;20077;-63
2022/05/26 03:52:48;;;;;;;1.25;1.05;;;9.70;99.90;;;;;;5111139;28;20097;-64
2022/05/26 03:55:15;;;;;;;8.23;1.00;;;9.70;99.90;;;;;;5110171;28;20047;-64
2022/05/26 03:57:43;;;;;;;1.70;1.08;;;9.70;99.90;;;;;;5090087;28;20055;-63
2022/05/26 04:00:12;;;;;;;1.52;0.88;;;9.70;99.90;;;;;;5094386;28;20058;-63
2022/05/26 04:02:39;;;;;;;1.33;0.80;;;9.80;99.90;;;;;;5094336;28;20381;-64
2022/05/26 04:05:06;;;;;;;1.50;1.35;;;9.90;99.90;;;;;;5080148;28;20044;-64
2022/05/26 04:07:34;;;;;;;;;;;9.90;99.90;;;;;;5082997;28;20032;-64
2022/05/26 04:10:06;;;;;;;5.72;1.35;;;9.90;99.90;;;;;;5091473;28;19924;-64
2022/05/26 04:12:33;;;;;;;6.40;1.65;;;10.10;99.90;;;;;;5088897;28;20445;-64
2022/05/26 04:15:00;;;;;;;2.35;1.00;;;10.10;99.90;;;;;;5090131;28;20048;-64
2022/05/26 04:17:27;;;;;;;1.83;1.30;;;10.20;99.90;;;;;;5109721;22;20051;-65
2022/05/26 04:19:54;;;;;;;4.30;2.05;;;10.20;99.90;;;;;;5070513;28;20044;-64
2022/05/26 04:22:23;;;;;;;4.22;1.90;;;10.30;99.90;;;;;;5089533;28;20040;-65
2022/05/26 04:24:54;;;;;;;1.92;1.67;;;10.40;99.90;;;;;;5088122;28;20040;-65
2022/05/26 04:27:23;;;;;;;2.78;1.25;;;10.50;99.90;;;;;;5081394;28;20090;-65
2022/05/26 04:29:50;;;;;;;3.55;1.75;;;10.60;99.90;;;;;;5090445;28;20040;-65
2022/05/26 04:32:18;;;;;;;2.28;1.27;;;10.70;99.90;;;;;;5091582;28;20040;-65
2022/05/26 04:34:48;;;;;;;1.48;1.20;;;10.80;99.90;;;;;;5082835;28;20041;-65
2022/05/26 04:37:16;;;;;;;1.60;1.00;;;10.90;99.90;;;;;;5085345;28;20411;-65
2022/05/26 04:39:43;;;;;;;3.65;1.38;;;10.90;99.90;;;;;;5091343;28;20089;-65
2022/05/26 04:42:10;;;;;;;3.53;0.95;;;10.90;99.90;;;;;;5089657;28;20052;-65
2022/05/26 04:44:41;;;;;;;2.10;1.20;;;11.00;99.90;;;;;;5080186;28;20053;-65
2022/05/26 04:47:09;;;;;;;4.20;1.20;;;11.00;99.90;;;;;;5090795;28;20480;-65
2022/05/26 04:49:37;;;;;;;3.22;1.40;;;11.20;99.90;;;;;;5091366;28;20044;-65
2022/05/26 04:52:06;;;;;;;8.77;1.30;;;11.30;99.90;;;;;;5086916;28;20053;-64
2022/05/26 04:54:33;;;;;;;1.38;1.02;;;11.50;99.90;;;;;;5079308;28;20047;-64
2022/05/26 04:57:00;;;;;;;3.40;1.58;;;11.60;99.90;;;;;;5090773;28;20036;-64
2022/05/26 04:59:27;;;;;;;0.95;0.95;;;11.70;99.90;;;;;;5091274;28;20109;-64
2022/05/26 05:01:54;;;;;;;0.98;0.80;;;11.60;99.90;;;;;;5083764;28;20049;-64
2022/05/26 05:04:27;;;;;;;1.92;0.88;;;11.60;99.90;;;;;;5086169;28;20546;-64
2022/05/26 05:06:56;;;;;;;5.75;1.00;;;11.50;99.90;;;;;;5090674;28;20504;-64
2022/05/26 05:09:24;;;;;;;0.65;0.65;;;11.40;99.90;;;;;;5089738;28;20491;-64
2022/05/26 05:11:51;;;;;;;1.20;0.90;;;11.30;99.90;;;;;;5082405;28;20093;-64
2022/05/26 05:14:18;;;;;;;1.83;1.27;;;11.30;99.90;;;;;;5073300;28;20036;-64
2022/05/26 05:16:46;;;;;;;2.42;1.42;;;11.30;99.90;;;;;;5087076;28;20036;-64
2022/05/26 05:19:16;;;;;;;6.45;2.28;;;11.30;99.90;;;;;;5089989;28;20109;-64
2022/05/26 05:21:55;;;;;;;5.32;2.88;;;11.50;99.90;;;;;;5090183;28;20506;-64
2022/05/26 05:24:57;;;;;;;7.75;2.80;;;11.60;99.90;;;;;;5091054;28;20048;-65
2022/05/26 05:27:44;;;;;;;5.85;2.95;;;11.70;99.90;;;;;;5085597;28;20040;-64
2022/05/26 05:30:17;;;;;;;9.45;3.00;;;11.90;99.90;;;;;;5085415;28;20044;-65
2022/05/26 05:32:45;;;;;;;4.80;2.88;;;12.00;99.90;;;;;;5094741;28;20036;-65
2022/05/26 05:35:19;;;;;;;2.63;2.40;;;12.00;99.90;;;;;;5086801;28;20094;-65
2022/05/26 05:37:45;;;;;;;3.53;2.90;;;12.00;99.90;;;;;;5086004;28;20407;-65
2022/05/26 05:40:12;;;;;;;5.80;2.70;;;12.00;99.90;;;;;;5093175;28;20524;-65
2022/05/26 05:42:39;;;;;;;5.80;2.67;;;12.10;99.90;;;;;;5092518;28;20055;-65
2022/05/26 05:45:07;;;;;;;3.30;2.60;;;12.40;99.90;;;;;;5086657;28;20098;-65
2022/05/26 05:47:34;;;;;;;5.05;2.60;;;12.60;99.90;;;;;;5091125;28;20048;-65
2022/05/26 05:50:01;;;;;;;3.33;2.88;;;12.60;99.90;;;;;;5093885;28;20047;-65
2022/05/26 05:52:28;;;;;;;;;;;12.50;99.90;;;;;;5090329;28;20036;-65
2022/05/26 05:54:56;;;;;;;3.22;2.92;;;12.50;99.90;;;;;;5085384;28;19958;-65
2022/05/26 05:57:22;;;;;;;3.53;2.60;;;12.50;99.90;;;;;;5093295;28;20051;-64
2022/05/26 05:59:49;;;;;;;2.95;2.28;;;12.50;99.90;;;;;;5091641;28;20048;-64
2022/05/26 06:02:17;;;;;;;4.78;2.42;;;12.50;99.90;;;;;;5084481;28;20558;-65
2022/05/26 06:04:59;;;;;;;5.00;2.50;;;12.60;99.90;;;;;;5073678;28;20382;-64
2022/05/26 06:07:26;;;;;;;7.75;2.80;;;12.60;99.90;;;;;;5073711;28;20045;-64
2022/05/26 06:09:53;;;;;;;7.38;2.88;;;12.70;99.90;;;;;;5073105;28;20036;-65
2022/05/26 06:12:21;;;;;;;6.13;2.58;;;12.70;99.90;;;;;;5086666;28;20041;-65
2022/05/26 06:14:49;;;;;;;5.07;2.83;;;12.80;99.90;;;;;;5092544;28;20423;-64
2022/05/26 06:17:16;;;;;;;4.93;2.40;;;12.80;99.90;;;;;;5093572;28;20036;-65
2022/05/26 06:19:44;;;;;;;4.78;2.58;;;12.90;99.90;;;;;;5077827;28;20493;-65
2022/05/26 06:22:15;;;;;;;2.92;2.45;;;13.00;99.90;;;;;;5079368;28;20040;-65
2022/05/26 06:24:42;;;;;;;3.75;2.38;;;13.10;99.90;;;;;;5073289;28;20047;-63
2022/05/26 06:29:58;;;;;;;4.57;2.42;;;13.20;99.90;;;;;;5076945;28;20052;-64
2022/05/26 06:38:00;;;;;;;3.22;2.78;;;13.50;99.90;;;;;;5084243;28;20040;-65
2022/05/26 06:40:31;;;;;;;3.97;2.55;;;13.60;99.90;;;;;;5092091;28;20557;-65
2022/05/26 06:42:59;;;;;;;4.55;2.50;;;13.70;99.90;;;;;;5086265;28;20543;-64
2022/05/26 06:45:26;;;;;;;3.42;2.80;;;13.90;99.90;;;;;;5088513;28;20043;-65
2022/05/26 06:47:53;;;;;;;3.35;2.40;;;14.00;99.90;;;;;;5092992;28;20051;-64
2022/05/26 06:50:20;;;;;;;5.95;2.75;;;14.10;99.90;;;;;;5086250;28;20036;-65
2022/05/26 06:52:46;;;;;;;4.15;2.38;;;14.30;99.90;;;;;;5084481;28;20040;-64
2022/05/26 06:55:13;;;;;;;3.42;2.22;;;14.40;99.90;;;;;;5092850;28;20036;-64
2022/05/26 06:57:40;;;;;;;4.80;3.00;;;14.50;99.90;;;;;;5091068;28;20055;-65
2022/05/26 07:00:09;;;;;;;2.97;2.63;;;14.60;99.90;;;;;;5080458;28;20044;-65
2022/05/26 07:02:35;;;;;;;4.10;2.70;;;14.70;99.90;;;;;;5089674;28;20047;-65
2022/05/26 07:05:03;;;;;;;3.67;2.58;;;14.90;99.90;;;;;;5092693;28;20498;-65
2022/05/26 07:07:32;;;;;;;2.88;2.20;;;15.10;99.90;;;;;;5086711;28;20044;-65
2022/05/26 07:09:59;;;;;;;5.25;2.30;;;15.10;99.90;;;;;;5080311;28;20048;-65
2022/05/26 07:12:32;;;;;;;3.65;2.38;;;15.20;99.90;;;;;;5072286;28;20052;-64
2022/05/26 07:14:59;;;;;;;7.22;2.40;;;15.20;99.90;;;;;;5072375;28;20053;-64
2022/05/26 07:17:26;;;;;;;4.10;2.65;;;15.40;99.90;;;;;;5080241;28;20043;-65
2022/05/26 07:19:53;;;;;;;4.38;2.65;;;15.50;99.90;;;;;;5091488;28;20087;-65
2022/05/26 07:22:22;;;;;;;5.90;2.28;;;15.50;99.90;;;;;;5092336;28;20101;-65
2022/05/26 07:24:51;;;;;;;4.25;2.17;;;15.50;99.90;;;;;;5092119;28;20048;-65
2022/05/26 07:27:19;;;;;;;3.80;2.38;;;15.60;99.90;;;;;;5082452;28;20488;-64
2022/05/26 07:29:52;;;;;;;3.22;1.95;;;15.60;99.90;;;;;;5091224;28;20044;-65
2022/05/26 07:32:20;;;;;;;2.95;2.45;;;15.80;99.90;;;;;;5092094;28;20127;-65
2022/05/26 07:34:46;;;;;;;2.50;2.00;;;16.10;99.90;;;;;;5088514;28;20056;-65
2022/05/26 07:42:44;;;;;;;2.63;2.20;;;16.30;99.90;;;;;;5091945;28;20051;-65
2022/05/26 07:45:12;;;;;;;6.80;2.13;;;16.60;99.90;;;;;;5080895;28;20037;-65
2022/05/26 07:47:39;;;;;;;5.57;2.60;;;16.90;99.90;;;;;;5089621;28;20369;-65
2022/05/26 07:50:09;;;;;;;2.78;1.88;;;17.20;99.90;;;;;;5091600;28;20098;-65
2022/05/26 07:52:35;;;;;;;2.85;2.30;;;17.20;99.90;;;;;;5088833;28;20052;-65
2022/05/26 07:55:03;;;;;;;2.95;2.10;;;17.30;99.90;;;;;;5083971;28;20047;-65
2022/05/26 07:57:30;;;;;;;3.53;2.33;;;17.30;99.90;;;;;;5091849;28;20443;-65
2022/05/26 07:59:58;;;;;;;4.35;2.05;;;17.30;99.90;;;;;;5091407;28;20039;-64
2022/05/26 08:02:25;;;;;;;3.50;2.00;;;17.30;99.90;;;;;;5083121;28;20036;-65
2022/05/26 08:04:53;;;;;;;3.55;2.05;;;17.40;99.90;;;;;;5091023;28;20047;-65
2022/05/26 08:07:19;;;;;;;1.85;1.67;;;17.50;99.90;;;;;;5091435;28;20055;-65
2022/05/26 08:09:46;;;;;;;5.07;2.22;;;17.50;99.90;;;;;;5091678;28;20439;-65
2022/05/26 08:12:14;;;;;;;;;;;17.60;99.90;;;;;;5082515;28;20515;-65
2022/05/26 08:14:43;;;;;;;12.43;2.20;;;17.60;99.90;;;;;;5089146;28;19927;-65
2022/05/26 08:17:12;;;;;;;2.25;2.00;;;17.70;99.90;;;;;;5073067;28;20040;-65
2022/05/26 08:19:39;;;;;;;2.20;2.00;;;17.90;99.90;;;;;;5086056;28;20488;-65
2022/05/26 08:22:06;;;;;;;2.47;1.73;;;18.10;99.90;;;;;;5082658;28;20055;-65
2022/05/26 08:24:33;;;;;;;1.95;1.80;;;18.10;99.90;;;;;;5091559;28;20040;-65
2022/05/26 08:26:59;;;;;;;3.42;2.00;;;18.30;99.90;;;;;;5091342;28;20109;-65
2022/05/26 08:29:26;;;;;;;4.75;2.20;;;18.30;99.90;;;;;;5082781;28;20036;-65
2022/05/26 08:31:53;;;;;;;2.05;1.85;;;18.30;99.90;;;;;;5082547;28;20051;-64
2022/05/26 08:34:20;;;;;;;2.67;1.58;;;18.20;99.90;;;;;;5091516;28;20044;-65
2022/05/26 08:36:47;;;;;;;2.70;2.30;;;18.40;99.90;;;;;;5091129;28;20492;-65
2022/05/26 08:39:16;;;;;;;2.83;1.90;;;18.40;99.90;;;;;;5079772;28;20079;-65
2022/05/26 08:41:49;;;;;;;4.22;2.10;;;18.70;99.90;;;;;;5088667;28;20046;-65
2022/05/26 08:44:34;;;;;;;3.70;1.60;;;18.80;99.90;;;;;;5091402;28;20420;-65
2022/05/26 08:47:10;;;;;;;3.50;1.70;;;19.00;99.90;;;;;;5083579;28;20044;-65
2022/05/26 08:49:55;;;;;;;2.33;1.50;;;19.00;99.90;;;;;;5088078;28;20050;-65
2022/05/26 08:52:56;;;;;;;3.25;1.90;;;19.00;99.90;;;;;;5091304;28;20043;-65
2022/05/26 08:55:32;;;;;;;2.20;1.55;;;19.10;99.90;;;;;;5079475;28;20044;-65
2022/05/26 08:58:06;;;;;;;4.60;1.67;;;19.10;99.90;;;;;;5082517;28;20051;-65
2022/05/26 09:00:37;;;;;;;2.67;1.85;;;19.40;99.90;;;;;;5090905;28;20044;-65
2022/05/26 09:03:25;;;;;;;3.75;1.70;;;19.60;99.90;;;;;;5083004;28;20365;-65
2022/05/26 09:06:15;;;;;;;3.75;1.58;;;19.60;99.90;;;;;;5085253;28;20048;-65
2022/05/26 09:14:34;;;;;;;1.55;1.45;;;19.10;99.90;;;;;;5088655;28;20040;-65
2022/05/26 09:17:07;;;;;;;5.13;1.50;;;19.00;99.90;;;;;;5076715;28;20063;-65
2022/05/26 09:19:49;;;;;;;1.65;1.45;;;19.10;99.90;;;;;;5094859;28;20488;-65
2022/05/26 09:22:44;;;;;;;4.05;1.20;;;19.30;99.90;;;;;;5088587;28;20041;-65
2022/05/26 09:25:29;;;;;;;1.83;1.35;;;19.40;99.90;;;;;;5094674;28;20047;-65
2022/05/26 09:27:56;;;;;;;3.50;1.17;;;19.60;99.90;;;;;;5093256;28;20051;-65
2022/05/26 09:30:29;;;;;;;3.55;1.38;;;19.90;99.90;;;;;;5082196;28;20047;-65
2022/05/26 09:32:56;;;;;;;5.25;1.52;;;20.00;99.90;;;;;;5094399;28;20055;-65
2022/05/26 09:35:28;;;;;;;;;;;20.40;99.90;;;;;;5094719;28;20047;-65
2022/05/26 09:38:02;;;;;;;3.42;1.70;;;20.50;99.90;;;;;;5086851;28;20270;-65
2022/05/26 09:40:40;;;;;;;4.20;1.40;;;20.70;99.90;;;;;;5085560;28;20048;-65
2022/05/26 09:43:27;;;;;;;5.30;1.20;;;20.80;99.90;;;;;;5094519;28;20044;-65
2022/05/26 09:45:58;;;;;;;3.08;1.25;;;20.70;99.90;;;;;;5092767;28;20047;-65
2022/05/26 09:48:29;;;;;;;3.65;1.05;;;20.60;99.90;;;;;;5085469;28;20036;-65
2022/05/26 09:51:22;;;;;;;2.08;1.08;;;20.70;99.90;;;;;;5093880;28;20043;-65
2022/05/26 09:53:51;;;;;;;1.10;1.00;;;20.90;99.90;;;;;;5094040;28;20054;-65
2022/05/26 09:56:27;;;;;;;1.17;1.08;;;20.80;99.90;;;;;;5083194;28;20488;-65
2022/05/26 09:58:54;;;;;;;4.18;1.15;;;20.70;99.90;;;;;;5093276;28;20048;-65
2022/05/26 10:01:33;;;;;;;7.82;1.55;;;20.70;99.90;;;;;;5093700;28;20052;-65
2022/05/26 10:04:30;;;;;;;6.47;1.23;;;20.80;99.90;;;;;;5082299;28;20090;-65
2022/05/26 10:07:38;;;;;;;6.63;1.75;;;20.80;99.90;;;;;;5093456;28;20073;-64
2022/05/26 10:10:15;;;;;;;3.40;1.17;;;20.70;99.90;;;;;;5052431;28;20063;-65
2022/05/26 10:13:10;;;;;;;4.65;1.30;;;20.80;99.90;;;;;;5083161;28;20048;-65
2022/05/26 10:16:14;;;;;;;3.63;1.50;;;20.50;99.90;;;;;;5093271;28;20036;-65
2022/05/26 10:22:42;;;;;;;5.50;1.10;;;20.60;99.90;;;;;;5076828;28;20056;-63
2022/05/26 10:25:24;;;;;;;5.32;1.10;;;20.90;99.90;;;;;;5072131;28;20056;-63
2022/05/26 10:28:09;;;;;;;3.40;1.38;;;20.60;99.90;;;;;;5075744;28;20047;-63
2022/05/26 10:31:02;;;;;;;3.08;1.15;;;20.20;99.90;;;;;;5105459;28;20043;-63
2022/05/26 10:33:35;;;;;;;1.95;1.30;;;19.70;99.90;;;;;;5134414;27;20047;-63
2022/05/26 10:36:21;;;;;;;3.13;0.98;;;19.70;99.90;;;;;;5130617;27;20399;-63
2022/05/26 10:39:13;;;;;;;3.30;1.48;;;19.90;99.90;;;;;;5103757;28;20046;-63
2022/05/26 10:42:05;;;;;;;10.20;1.60;;;20.40;99.90;;;;;;5113243;28;20058;-62
2022/05/26 10:45:16;;;;;;;5.00;1.40;;;20.40;99.90;;;;;;5113950;28;20491;-63
2022/05/26 10:47:52;;;;;;;4.55;1.17;;;20.30;99.90;;;;;;5110855;28;20042;-63
2022/05/26 10:50:41;;;;;;;4.35;1.10;;;20.80;99.90;;;;;;5107620;28;20046;-63
2022/05/26 10:53:15;;;;;;;3.30;1.10;;;21.10;99.90;;;;;;5113501;28;20036;-63
2022/05/26 10:55:59;;;;;;;4.03;1.10;;;20.80;99.90;;;;;;5108943;28;20589;-63
2022/05/26 10:58:32;;;;;;;2.47;1.00;;;20.40;99.90;;;;;;5109304;28;20158;-63
2022/05/26 11:01:06;;;;;;;2.30;1.13;;;20.30;99.90;;;;;;5112490;28;20048;-63
2022/05/26 11:03:47;;;;;;;5.95;1.25;;;20.50;99.90;;;;;;5113214;28;20043;-64
2022/05/26 11:06:45;;;;;;;2.90;1.00;;;20.50;99.90;;;;;;5085127;28;20059;-63
2022/05/26 11:09:34;;;;;;;1.83;1.05;;;20.30;99.90;;;;;;5083914;28;20488;-63
2022/05/26 11:12:09;;;;;;;1.52;1.05;;;20.20;99.90;;;;;;5092124;28;20054;-63
2022/05/26 11:17:42;;;;;;;2.50;0.82;;;20.30;99.90;;;;;;5104191;28;20051;-63
2022/05/26 11:20:18;;;;;;;1.38;1.02;;;20.30;99.90;;;;;;5112485;28;20504;-63
2022/05/26 11:22:45;;;;;;;6.10;1.50;;;20.10;99.90;;;;;;5112750;28;20043;-63
2022/05/26 11:25:20;;;;;;;4.72;1.00;;;20.20;99.90;;;;;;5105225;28;20039;-63
2022/05/26 11:27:59;;;;;;;3.05;0.85;;;20.30;99.90;;;;;;5103451;28;20384;-63
2022/05/26 11:36:59;;;;;;;5.30;1.10;;;20.70;99.90;;;;;;5110927;28;20051;-63
2022/05/26 11:39:32;;;;;;;2.03;0.63;;;20.90;99.90;;;;;;5112600;28;20052;-63
2022/05/26 11:42:08;;;;;;;1.65;0.82;;;20.70;99.90;;;;;;5110508;28;20055;-63
2022/05/26 11:44:41;;;;;;;2.90;0.93;;;20.70;99.90;;;;;;5100643;28;20400;-63
2022/05/26 11:47:26;;;;;;;4.15;1.20;;;20.50;99.90;;;;;;5094214;28;20407;-63
2022/05/26 11:49:53;;;;;;;2.13;0.93;;;20.70;99.90;;;;;;5109440;28;20058;-63
2022/05/26 11:52:46;;;;;;;4.25;1.13;;;21.00;99.90;;;;;;5100097;28;20131;-63
2022/05/26 11:55:45;;;;;;;5.03;0.90;;;21.30;99.90;;;;;;5091760;28;20051;-63
2022/05/26 11:58:38;;;;;;;2.58;0.90;;;21.00;99.90;;;;;;5091698;28;20492;-63
2022/05/26 12:01:15;;;;;;;1.77;0.90;;;20.70;99.90;;;;;;5104090;28;20047;-63
2022/05/26 12:04:16;;;;;;;4.43;1.00;;;20.60;99.90;;;;;;5112198;28;20496;-63
2022/05/26 12:07:17;;;;;;;4.53;0.90;;;20.70;99.90;;;;;;5099132;28;20063;-63
2022/05/26 12:09:52;;;;;;;2.55;0.90;;;20.90;99.90;;;;;;5103302;28;20074;-63
2022/05/26 12:12:21;;;;;;;2.58;0.70;;;21.00;99.90;;;;;;5112009;28;20051;-63
2022/05/26 12:14:50;;;;;;;2.67;0.82;;;21.20;99.90;;;;;;5111836;28;20042;-63
2022/05/26 12:17:40;;;;;;;3.13;1.02;;;21.10;99.90;;;;;;5104086;28;20073;-64
2022/05/26 12:20:10;;;;;;;4.97;1.10;;;20.90;99.90;;;;;;5090978;28;20044;-63
2022/05/26 12:22:52;;;;;;;2.25;0.80;;;20.60;99.90;;;;;;5091480;28;20117;-63
2022/05/26 12:25:22;;;;;;;2.90;1.00;;;20.60;99.90;;;;;;5098200;28;20096;-63
2022/05/26 12:27:49;;;;;;;3.28;1.20;;;20.40;99.90;;;;;;5103122;28;20057;-63
2022/05/26 12:30:45;;;;;;;2.38;1.38;;;20.30;99.90;;;;;;5111396;28;20043;-63
2022/05/26 12:33:22;;;;;;;4.05;1.02;;;20.20;99.90;;;;;;5105659;28;20446;-63
2022/05/26 12:36:25;;;;;;;3.85;1.05;;;20.20;99.90;;;;;;5098625;28;20137;-64
2022/05/26 12:39:43;;;;;;;1.17;1.00;;;20.20;99.90;;;;;;4990119;28;20058;-63
2022/05/26 12:42:20;;;;;;;4.10;1.00;;;20.50;99.90;;;;;;5102585;28;20123;-63
2022/05/26 12:45:15;;;;;;;1.52;0.70;;;20.70;99.90;;;;;;5107470;28;20047;-63
2022/05/26 12:48:16;;;;;;;2.65;1.00;;;20.60;99.90;;;;;;5115758;28;20046;-64
2022/05/26 12:50:43;;;;;;;1.98;0.88;;;20.60;99.90;;;;;;5110677;28;20523;-64
2022/05/26 12:53:19;;;;;;;1.20;0.90;;;20.40;99.90;;;;;;5109013;28;20096;-63
2022/05/26 12:55:59;;;;;;;2.38;1.05;;;20.30;99.90;;;;;;5116439;28;20031;-64
2022/05/26 12:58:38;;;;;;;4.10;1.00;;;20.20;99.90;;;;;;5112172;28;20044;-64
2022/05/26 13:01:11;;;;;;;3.42;0.98;;;20.20;99.90;;;;;;5107856;28;20047;-64
2022/05/26 13:04:18;;;;;;;5.07;1.30;;;20.30;99.90;;;;;;5115372;28;20081;-63
2022/05/26 13:06:49;;;;;;;1.05;0.77;;;20.40;99.90;;;;;;5070389;28;20146;-64
2022/05/26 13:09:24;;;;;;;1.10;0.75;;;20.50;99.90;;;;;;5108694;28;20043;-64
2022/05/26 13:11:52;;;;;;;2.60;1.00;;;20.50;99.90;;;;;;5114135;28;20039;-64
2022/05/26 13:14:35;;;;;;;4.63;1.08;;;20.70;99.90;;;;;;5115025;28;20047;-64
2022/05/26 13:17:04;;;;;;;2.50;1.00;;;20.70;99.90;;;;;;5108089;28;20287;-63
2022/05/26 13:19:31;;;;;;;2.13;0.95;;;20.90;99.90;;;;;;5111233;28;20047;-64
2022/05/26 13:21:58;;;;;;;;;;;20.90;99.90;;;;;;5115394;28;20043;-63
2022/05/26 13:24:31;;;;;;;5.85;1.30;;;21.00;99.90;;;;;;5115028;28;19919;-64
2022/05/26 13:27:08;;;;;;;1.42;0.80;;;21.20;99.90;;;;;;5106094;28;20073;-63
2022/05/26 13:29:40;;;;;;;1.35;0.80;;;21.60;99.90;;;;;;5111866;28;20035;-64
2022/05/26 13:34:57;;;;;;;2.85;1.00;;;21.50;99.90;;;;;;5111518;28;20047;-64
2022/05/26 13:37:27;;;;;;;2.65;1.00;;;21.60;99.90;;;;;;5106297;28;20051;-64
2022/05/26 13:40:11;;;;;;;1.80;0.75;;;22.10;99.90;;;;;;5114241;28;20384;-63
2022/05/26 13:42:42;;;;;;;2.53;1.00;;;22.80;99.90;;;;;;5115247;28;20035;-64
2022/05/26 13:45:35;;;;;;;5.68;0.80;;;23.70;99.90;;;;;;5105629;28;20044;-64
2022/05/26 13:48:30;;;;;;;3.90;0.63;;;23.90;99.90;;;;;;5094145;28;20048;-64
2022/05/26 13:51:22;;;;;;;2.10;0.93;;;23.90;99.90;;;;;;5093562;28;20039;-64
2022/05/26 13:53:52;;;;;;;1.55;0.80;;;23.90;99.90;;;;;;5104648;28;20068;-64
2022/05/26 13:56:31;;;;;;;0.70;0.70;;;23.80;99.90;;;;;;5114620;28;20043;-63
2022/05/26 13:59:05;;;;;;;4.72;0.93;;;23.30;99.90;;;;;;5114505;28;20401;-64
2022/05/26 14:01:32;;;;;;;1.15;0.70;;;23.10;99.90;;;;;;5106458;28;20408;-64
2022/05/26 14:04:18;;;;;;;2.53;0.80;;;23.10;99.90;;;;;;5105830;28;20043;-64
2022/05/26 14:06:45;;;;;;;1.88;0.80;;;23.10;99.90;;;;;;5114258;28;20064;-63
2022/05/26 14:09:29;;;;;;;2.55;0.90;;;22.70;99.90;;;;;;5111212;28;20087;-64
2022/05/26 14:12:23;;;;;;;5.28;1.00;;;22.80;99.90;;;;;;5104975;28;20035;-64